Goreville, Illinois
Current Conditions -  °F | °C
As of 3:52 PM on Tuesday 25 Nov 2014 (Local Time) from KMWA Reporting Station
Scattered Clouds Scattered Clouds  
Wind Chill: 35°   Ceiling: Unl
Heat Index: 39°   Visibility: 20mi
Dew Point: 27°   Wind: 6mph
Humidity: 61%   Direction: 340°NNW
Pressure: 30.17"   Gusts: NA
Location:  37.55°N, 88.97°W
Report Text: KMWA 252152Z 34005KT 20SM SCT250 04/M03 A3017
Loading
Personal Weather Stations






























Interactive Weather Map New forecast layout! Learn more

10-Day Weather Forecast

Advertisements
Track Severe Weather on mobile